createdAt,value
2023-05-04T00:01:11.097Z,9.80
2023-05-04T00:03:38.964Z,9.80
2023-05-04T00:08:34.138Z,9.70
2023-05-04T00:11:02.081Z,9.90
2023-05-04T00:15:57.552Z,9.60
2023-05-04T00:18:24.895Z,9.80
2023-05-04T00:20:54.015Z,9.80
2023-05-04T00:23:21.367Z,9.60
2023-05-04T00:25:48.702Z,9.70
2023-05-04T00:33:11.893Z,9.80
2023-05-04T00:35:40.127Z,9.70
2023-05-04T00:38:07.913Z,11.10
2023-05-04T00:40:36.458Z,9.70
2023-05-04T00:43:04.023Z,10.10
2023-05-04T00:47:59.580Z,9.70
2023-05-04T00:50:28.714Z,9.80
2023-05-04T00:52:58.525Z,9.60
2023-05-04T00:57:53.865Z,9.20
2023-05-04T01:00:21.576Z,9.60
2023-05-04T01:02:50.148Z,9.60
2023-05-04T01:05:17.871Z,9.70
2023-05-04T01:08:09.922Z,9.30
2023-05-04T01:10:55.184Z,9.60
2023-05-04T01:13:22.801Z,9.50
2023-05-04T01:15:50.771Z,9.80
2023-05-04T01:18:18.313Z,9.50
2023-05-04T01:23:13.496Z,9.60
2023-05-04T01:26:05.957Z,9.50
2023-05-04T01:28:50.731Z,9.50
2023-05-04T01:31:22.866Z,9.50
2023-05-04T01:33:54.027Z,9.50
2023-05-04T01:36:22.288Z,9.50
2023-05-04T01:38:53.181Z,9.70
2023-05-04T01:41:21.625Z,9.50
2023-05-04T01:43:50.913Z,9.70
2023-05-04T01:46:18.486Z,10.10
2023-05-04T01:48:46.028Z,10.20
2023-05-04T01:51:13.446Z,9.70
2023-05-04T01:53:40.921Z,10.10
2023-05-04T01:56:08.424Z,9.60
2023-05-04T01:58:35.909Z,9.60
2023-05-04T02:01:03.419Z,9.50
2023-05-04T02:03:32.454Z,10.10
2023-05-04T02:06:01.166Z,9.80
2023-05-04T02:08:28.643Z,9.80
2023-05-04T02:10:56.031Z,9.80
2023-05-04T02:13:24.759Z,9.70
2023-05-04T02:15:52.035Z,9.70
2023-05-04T02:18:19.311Z,9.80
2023-05-04T02:20:46.674Z,9.50
2023-05-04T02:25:42.778Z,9.70
2023-05-04T02:30:37.975Z,9.70
2023-05-04T02:33:05.344Z,9.20
2023-05-04T02:35:32.891Z,10.00
2023-05-04T02:38:00.322Z,9.90
2023-05-04T02:40:27.785Z,10.20
2023-05-04T02:42:56.010Z,10.20
2023-05-04T02:45:23.419Z,10.70
2023-05-04T02:50:18.595Z,9.60
2023-05-04T02:52:46.030Z,9.60
2023-05-04T02:55:13.428Z,10.20
2023-05-04T02:57:41.023Z,9.40
2023-05-04T03:00:09.015Z,9.30
2023-05-04T03:02:36.463Z,9.40
2023-05-04T03:05:04.479Z,9.40
2023-05-04T03:07:31.851Z,9.30
2023-05-04T03:10:00.215Z,9.50
2023-05-04T03:12:27.619Z,9.30
2023-05-04T03:14:55.271Z,9.10
2023-05-04T03:17:22.799Z,9.70
2023-05-04T03:24:46.798Z,9.40
2023-05-04T03:32:10.474Z,9.40
2023-05-04T03:34:37.876Z,9.80
2023-05-04T03:37:08.007Z,9.20
2023-05-04T03:39:35.503Z,9.20
2023-05-04T03:42:03.727Z,8.70
2023-05-04T03:44:31.270Z,9.20
2023-05-04T03:46:58.604Z,9.20
2023-05-04T03:49:26.176Z,9.10
2023-05-04T03:51:53.825Z,9.30
2023-05-04T03:54:23.232Z,9.10
2023-05-04T03:56:50.710Z,9.70
2023-05-04T03:59:18.869Z,9.20
2023-05-04T04:01:47.015Z,9.10
2023-05-04T04:04:14.464Z,10.00
2023-05-04T04:06:43.455Z,9.20
2023-05-04T04:09:10.996Z,9.00
2023-05-04T04:11:38.260Z,9.40
2023-05-04T04:16:33.840Z,9.30
2023-05-04T04:19:02.075Z,9.40
2023-05-04T04:21:29.572Z,9.70
2023-05-04T04:23:56.956Z,10.10
2023-05-04T04:26:24.341Z,9.50
2023-05-04T04:28:51.832Z,9.60
2023-05-04T04:31:19.977Z,9.10
2023-05-04T04:33:49.432Z,9.30
2023-05-04T04:36:16.926Z,9.80
2023-05-04T04:38:44.851Z,9.30
2023-05-04T04:41:12.247Z,9.60
2023-05-04T04:43:39.600Z,9.30
2023-05-04T04:46:06.994Z,10.00
2023-05-04T04:48:34.459Z,9.30
2023-05-04T04:51:01.815Z,9.40
2023-05-04T04:53:29.111Z,9.50
2023-05-04T04:55:56.453Z,9.50
2023-05-04T04:58:23.764Z,10.10
2023-05-04T05:00:52.833Z,10.20
2023-05-04T05:03:20.253Z,9.60
2023-05-04T05:05:47.596Z,11.20
2023-05-04T05:08:15.105Z,9.80
2023-05-04T05:10:43.940Z,9.80
2023-05-04T05:13:11.691Z,10.80
2023-05-04T05:15:39.280Z,10.10
2023-05-04T05:18:07.141Z,10.10
2023-05-04T05:20:34.585Z,10.50
2023-05-04T05:23:01.878Z,10.00
2023-05-04T05:25:29.892Z,10.50
2023-05-04T05:27:57.220Z,10.40
2023-05-04T05:30:24.900Z,10.30
2023-05-04T05:32:53.664Z,10.30
2023-05-04T05:35:21.305Z,10.40
2023-05-04T05:37:49.467Z,10.70
2023-05-04T05:40:16.875Z,10.50
2023-05-04T05:42:45.065Z,10.60
2023-05-04T05:45:14.025Z,10.60
2023-05-04T05:50:13.890Z,10.80
2023-05-04T05:53:01.871Z,10.80
2023-05-04T05:58:10.853Z,11.70
2023-05-04T06:00:41.546Z,11.00
2023-05-04T06:03:09.120Z,11.00
2023-05-04T06:05:36.870Z,11.30
2023-05-04T06:08:04.464Z,11.10
2023-05-04T06:10:32.139Z,11.10
2023-05-04T06:13:46.868Z,11.60
2023-05-04T06:15:52.745Z,11.20
2023-05-04T06:18:21.029Z,11.30
2023-05-04T06:20:48.644Z,11.60
2023-05-04T06:25:44.072Z,11.50
2023-05-04T06:28:11.516Z,11.50
2023-05-04T06:30:38.983Z,11.60
2023-05-04T06:33:07.379Z,11.70
2023-05-04T06:35:35.283Z,11.90
2023-05-04T06:38:03.299Z,11.80
2023-05-04T06:40:30.954Z,11.90
2023-05-04T06:42:58.708Z,11.60
2023-05-04T06:45:26.530Z,12.00
2023-05-04T06:48:01.377Z,12.10
2023-05-04T06:50:29.264Z,12.20
2023-05-04T06:53:23.690Z,12.30
2023-05-04T06:56:34.830Z,12.70
2023-05-04T06:59:38.195Z,12.40
2023-05-04T07:02:33.915Z,12.50
2023-05-04T07:05:03.083Z,12.60
2023-05-04T07:14:12.319Z,12.90
2023-05-04T07:16:40.089Z,13.10
2023-05-04T07:19:13.086Z,13.30
2023-05-04T07:21:49.006Z,13.30
2023-05-04T07:24:16.887Z,13.40
2023-05-04T07:29:45.721Z,13.60
2023-05-04T07:34:56.760Z,13.60
2023-05-04T07:37:54.377Z,13.60
2023-05-04T07:40:37.897Z,13.60
2023-05-04T07:43:15.986Z,13.50
2023-05-04T07:45:43.917Z,15.90
2023-05-04T07:48:33.894Z,13.80
2023-05-04T07:51:30.862Z,13.80
2023-05-04T07:53:58.627Z,13.90
2023-05-04T07:57:09.565Z,13.70
2023-05-04T07:59:35.281Z,13.60
2023-05-04T08:02:28.183Z,13.60
2023-05-04T08:05:15.119Z,13.70
2023-05-04T08:07:42.998Z,13.60
2023-05-04T08:10:29.399Z,13.70
2023-05-04T08:12:59.744Z,13.80
2023-05-04T08:15:28.396Z,13.90
2023-05-04T08:21:00.248Z,13.90
2023-05-04T08:23:37.473Z,14.10
2023-05-04T08:26:19.119Z,14.20
2023-05-04T08:28:47.443Z,14.40
2023-05-04T08:31:30.565Z,14.30
2023-05-04T08:34:01.608Z,14.40
2023-05-04T08:36:38.619Z,14.50
2023-05-04T08:39:09.188Z,14.70
2023-05-04T08:49:35.578Z,15.20
2023-05-04T08:52:11.252Z,15.30
2023-05-04T08:54:40.048Z,15.40
2023-05-04T08:57:07.900Z,15.60
2023-05-04T08:59:36.878Z,15.60
2023-05-04T09:02:05.975Z,15.50
2023-05-04T09:04:35.884Z,15.50
2023-05-04T09:07:03.860Z,15.60
2023-05-04T09:09:31.707Z,15.30
2023-05-04T09:12:00.339Z,15.40
2023-05-04T09:14:35.044Z,15.50
2023-05-04T09:17:03.948Z,15.50
2023-05-04T09:19:34.907Z,15.30
2023-05-04T09:22:20.333Z,15.20
2023-05-04T09:24:47.883Z,15.10
2023-05-04T09:27:18.087Z,15.10
2023-05-04T09:29:53.875Z,15.20
2023-05-04T09:32:24.262Z,15.30
2023-05-04T09:34:53.361Z,15.30
2023-05-04T09:37:22.537Z,15.50
2023-05-04T09:39:56.105Z,15.70
2023-05-04T09:42:24.887Z,16.00
2023-05-04T09:45:21.752Z,16.20
2023-05-04T09:48:02.491Z,16.10
2023-05-04T09:50:33.255Z,16.20
2023-05-04T09:53:02.609Z,16.00
2023-05-04T09:55:30.271Z,16.20
2023-05-04T09:57:59.833Z,16.20
2023-05-04T10:00:27.308Z,16.40
2023-05-04T10:02:55.671Z,16.50
2023-05-04T10:05:31.547Z,16.70
2023-05-04T10:08:00.753Z,16.80
2023-05-04T10:10:35.988Z,17.10
2023-05-04T10:13:03.588Z,17.00
2023-05-04T10:15:32.190Z,17.10
2023-05-04T10:18:24.306Z,16.50
2023-05-04T10:21:25.796Z,16.90
2023-05-04T10:23:53.267Z,17.00
2023-05-04T10:26:43.903Z,17.00
2023-05-04T10:29:29.270Z,17.00
2023-05-04T10:32:05.824Z,17.00
2023-05-04T10:34:34.955Z,17.10
2023-05-04T10:37:03.818Z,18.90
2023-05-04T10:39:33.565Z,17.30
2023-05-04T10:42:08.371Z,17.40
2023-05-04T10:44:55.095Z,17.60
2023-05-04T10:47:33.116Z,17.60
2023-05-04T10:50:12.304Z,17.90
2023-05-04T10:52:47.676Z,18.10
2023-05-04T10:57:50.823Z,18.30
2023-05-04T11:00:19.225Z,18.50
2023-05-04T11:02:48.189Z,18.70
2023-05-04T11:05:20.487Z,18.60
2023-05-04T11:07:53.513Z,18.60
2023-05-04T11:10:25.653Z,18.70
2023-05-04T11:13:05.771Z,18.60
2023-05-04T11:15:46.428Z,18.60
2023-05-04T11:18:14.510Z,18.50
2023-05-04T11:20:47.520Z,18.40
2023-05-04T11:23:16.852Z,18.40
2023-05-04T11:25:47.458Z,18.00
2023-05-04T11:28:15.023Z,18.00
2023-05-04T11:30:44.655Z,18.10
2023-05-04T11:33:14.463Z,18.30
2023-05-04T11:35:43.889Z,18.30
2023-05-04T11:40:48.106Z,17.60
2023-05-04T11:43:16.242Z,18.00
2023-05-04T11:45:46.428Z,18.20
2023-05-04T11:48:14.693Z,18.00
2023-05-04T11:50:45.661Z,17.90
2023-05-04T11:55:42.742Z,18.00
2023-05-04T11:58:12.158Z,17.90
2023-05-04T12:00:44.863Z,18.00
2023-05-04T12:03:18.062Z,18.20
2023-05-04T12:05:52.732Z,17.90
2023-05-04T12:08:32.797Z,17.60
2023-05-04T12:11:16.168Z,17.60
2023-05-04T12:13:45.720Z,17.50
2023-05-04T12:16:18.436Z,17.60
2023-05-04T12:18:47.430Z,17.40
2023-05-04T12:21:15.805Z,17.20
2023-05-04T12:26:11.961Z,17.40
2023-05-04T12:28:41.896Z,17.60
2023-05-04T12:31:12.460Z,17.20
2023-05-04T12:33:39.876Z,17.20
2023-05-04T12:36:08.248Z,17.20
2023-05-04T12:38:35.776Z,17.30
2023-05-04T12:41:04.522Z,17.40
2023-05-04T12:43:33.079Z,17.50
2023-05-04T12:46:00.658Z,18.00
2023-05-04T12:51:00.919Z,18.50
2023-05-04T12:53:30.117Z,18.60
2023-05-04T12:56:01.068Z,18.60
2023-05-04T12:58:28.944Z,18.40
2023-05-04T13:00:57.835Z,18.30
2023-05-04T13:05:53.555Z,18.30
2023-05-04T13:08:22.136Z,18.20
2023-05-04T13:10:50.600Z,17.90
2023-05-04T13:13:18.965Z,17.60
2023-05-04T13:15:53.026Z,17.60
2023-05-04T13:18:20.795Z,17.40
2023-05-04T13:20:48.418Z,17.30
2023-05-04T13:23:16.051Z,17.20
2023-05-04T13:25:46.839Z,16.90
2023-05-04T13:28:14.190Z,17.00
2023-05-04T13:30:41.565Z,17.00
2023-05-04T13:33:20.767Z,16.80
2023-05-04T13:35:58.124Z,16.90
2023-05-04T13:38:26.362Z,16.90
2023-05-04T13:40:55.416Z,17.50
2023-05-04T13:43:22.880Z,17.10
2023-05-04T13:45:50.562Z,17.30
2023-05-04T13:48:18.229Z,17.20
2023-05-04T13:53:13.506Z,18.00
2023-05-04T14:03:05.075Z,18.40
2023-05-04T14:05:32.602Z,18.20
2023-05-04T14:08:00.025Z,18.30
2023-05-04T14:10:27.634Z,18.10
2023-05-04T14:15:23.549Z,18.00
2023-05-04T14:17:51.026Z,18.00
2023-05-04T14:22:46.366Z,17.60
2023-05-04T14:25:14.059Z,17.90
2023-05-04T14:27:44.511Z,18.00
2023-05-04T14:30:12.472Z,18.60
2023-05-04T14:32:41.263Z,19.50
2023-05-04T14:35:10.495Z,20.60
2023-05-04T14:37:39.662Z,21.20
2023-05-04T14:40:11.167Z,21.80
2023-05-04T14:42:39.287Z,22.20
2023-05-04T14:45:08.833Z,22.40
2023-05-04T14:47:36.580Z,22.80
2023-05-04T14:50:05.268Z,23.50
2023-05-04T14:52:34.134Z,23.90
2023-05-04T14:55:02.644Z,24.30
2023-05-04T14:57:30.075Z,24.60
2023-05-04T14:59:57.731Z,24.40
2023-05-04T15:02:25.176Z,24.70
2023-05-04T15:04:52.985Z,24.50
2023-05-04T15:07:20.802Z,24.20
2023-05-04T15:09:48.285Z,23.60
2023-05-04T15:12:16.515Z,23.20
2023-05-04T15:14:44.083Z,22.60
2023-05-04T15:17:11.367Z,22.10
2023-05-04T15:19:39.709Z,21.80
2023-05-04T15:22:07.413Z,22.10
2023-05-04T15:24:34.855Z,22.00
2023-05-04T15:27:02.319Z,21.90
2023-05-04T15:29:30.778Z,21.70
2023-05-04T15:31:58.185Z,21.30
2023-05-04T15:34:25.719Z,21.00
2023-05-04T15:39:20.982Z,20.50
2023-05-04T15:41:48.303Z,20.30
2023-05-04T15:44:15.746Z,19.70
2023-05-04T15:46:43.343Z,19.60
2023-05-04T15:49:10.740Z,19.70
2023-05-04T15:51:38.267Z,19.40
2023-05-04T15:54:05.865Z,19.60
2023-05-04T15:56:33.230Z,19.40
2023-05-04T16:03:56.630Z,19.50
2023-05-04T16:06:24.078Z,19.30
2023-05-04T16:08:51.637Z,19.80
2023-05-04T16:11:19.045Z,19.50
2023-05-04T16:13:46.438Z,19.60
2023-05-04T16:16:13.895Z,19.90
2023-05-04T16:18:43.321Z,20.50
2023-05-04T16:21:11.220Z,20.40
2023-05-04T16:23:40.563Z,20.40
2023-05-04T16:28:35.885Z,20.30
2023-05-04T16:31:06.043Z,20.30
2023-05-04T16:33:33.530Z,20.20
2023-05-04T16:36:00.924Z,20.40
2023-05-04T16:40:56.900Z,21.90
2023-05-04T16:43:24.425Z,22.90
2023-05-04T16:45:51.930Z,23.60
2023-05-04T16:48:20.860Z,24.30
2023-05-04T16:50:48.214Z,24.30
2023-05-04T16:53:16.316Z,24.30
2023-05-04T16:55:43.650Z,24.20
2023-05-04T16:58:10.966Z,23.80
2023-05-04T17:00:41.939Z,23.40
2023-05-04T17:03:09.392Z,23.00
2023-05-04T17:05:36.833Z,22.80
2023-05-04T17:08:08.338Z,23.20
2023-05-04T17:10:35.720Z,23.90
2023-05-04T17:13:03.196Z,24.40
2023-05-04T17:15:30.578Z,24.70
2023-05-04T17:17:58.017Z,24.70
2023-05-04T17:20:29.944Z,23.90
2023-05-04T17:23:00.573Z,24.20
2023-05-04T17:25:28.078Z,24.10
2023-05-04T17:27:55.587Z,23.70
2023-05-04T17:30:25.775Z,23.40
2023-05-04T17:32:54.641Z,23.10
2023-05-04T17:35:26.606Z,22.30
2023-05-04T17:37:58.817Z,21.90
2023-05-04T17:40:27.763Z,21.30
2023-05-04T17:42:56.085Z,20.80
2023-05-04T17:45:23.522Z,20.10
2023-05-04T17:47:51.284Z,20.10
2023-05-04T17:50:18.984Z,20.00
2023-05-04T17:52:51.773Z,19.50
2023-05-04T17:55:19.324Z,19.60
2023-05-04T17:57:46.767Z,19.50
2023-05-04T18:00:14.935Z,19.30
2023-05-04T18:02:42.443Z,19.20
2023-05-04T18:05:10.384Z,19.10
2023-05-04T18:07:38.597Z,19.00
2023-05-04T18:10:06.717Z,19.00
2023-05-04T18:12:37.793Z,19.00
2023-05-04T18:15:09.127Z,18.90
2023-05-04T18:17:38.355Z,19.70
2023-05-04T18:20:08.301Z,19.40
2023-05-04T18:22:36.869Z,19.60
2023-05-04T18:25:04.549Z,19.90
2023-05-04T18:27:33.559Z,19.70
2023-05-04T18:35:00.028Z,18.70
2023-05-04T18:37:31.042Z,18.40
2023-05-04T18:39:58.919Z,19.00
2023-05-04T18:44:56.830Z,18.00
2023-05-04T18:47:24.158Z,17.40
2023-05-04T18:49:54.458Z,17.90
2023-05-04T18:52:22.236Z,18.50
2023-05-04T18:54:49.744Z,18.00
2023-05-04T18:57:18.163Z,18.00
2023-05-04T19:02:13.340Z,17.80
2023-05-04T19:04:41.216Z,17.70
2023-05-04T19:07:09.897Z,17.60
2023-05-04T19:09:38.728Z,17.50
2023-05-04T19:12:06.617Z,17.40
2023-05-04T19:14:34.001Z,17.40
2023-05-04T19:19:36.447Z,17.10
2023-05-04T19:22:04.476Z,17.00
2023-05-04T19:27:02.751Z,16.90
2023-05-04T19:29:30.687Z,16.80
2023-05-04T19:31:59.519Z,16.70
2023-05-04T19:36:59.266Z,16.60
2023-05-04T19:39:26.882Z,16.30
2023-05-04T19:44:22.210Z,16.40
2023-05-04T19:46:51.691Z,16.40
2023-05-04T19:49:21.826Z,16.50
2023-05-04T19:51:49.153Z,16.30
2023-05-04T19:54:16.747Z,16.20
2023-05-04T19:56:44.580Z,16.20
2023-05-04T19:59:15.082Z,16.10
2023-05-04T20:01:42.550Z,16.30
2023-05-04T20:04:10.343Z,16.00
2023-05-04T20:06:37.941Z,16.00
2023-05-04T20:09:05.597Z,16.30
2023-05-04T20:11:39.217Z,15.90
2023-05-04T20:14:09.656Z,15.80
2023-05-04T20:16:38.454Z,15.80
2023-05-04T20:19:07.530Z,15.70
2023-05-04T20:21:37.718Z,15.90
2023-05-04T20:24:07.473Z,15.60
2023-05-04T20:26:34.843Z,15.60
2023-05-04T20:29:02.159Z,15.40
2023-05-04T20:31:30.041Z,15.50
2023-05-04T20:33:57.818Z,15.20
2023-05-04T20:36:25.217Z,15.50
2023-05-04T20:38:54.191Z,15.30
2023-05-04T20:41:22.422Z,14.00
2023-05-04T20:43:50.325Z,15.10
2023-05-04T20:46:29.390Z,15.30
2023-05-04T20:49:07.386Z,15.40
2023-05-04T20:51:43.175Z,15.20
2023-05-04T20:54:17.942Z,15.00
2023-05-04T20:56:52.788Z,14.90
2023-05-04T20:59:46.903Z,14.80
2023-05-04T21:02:14.622Z,14.80
2023-05-04T21:04:43.376Z,14.80
2023-05-04T21:07:11.049Z,15.30
2023-05-04T21:12:21.175Z,14.90
2023-05-04T21:14:52.285Z,14.80
2023-05-04T21:17:20.195Z,14.70
2023-05-04T21:19:47.634Z,14.90
2023-05-04T21:22:17.636Z,14.80
2023-05-04T21:24:46.820Z,14.70
2023-05-04T21:28:11.097Z,14.70
2023-05-04T21:30:38.173Z,14.60
2023-05-04T21:36:48.200Z,14.50
2023-05-04T21:39:16.786Z,14.50
2023-05-04T21:41:47.789Z,14.40
2023-05-04T21:44:34.979Z,14.10
2023-05-04T21:47:08.301Z,14.30
2023-05-04T21:50:08.406Z,14.30
2023-05-04T21:52:36.258Z,14.70
2023-05-04T21:55:07.644Z,14.20
2023-05-04T21:57:43.077Z,14.20
2023-05-04T22:00:30.393Z,14.30
2023-05-04T22:03:16.043Z,14.10
2023-05-04T22:06:06.203Z,14.10
2023-05-04T22:09:09.203Z,14.00
2023-05-04T22:11:57.419Z,14.00
2023-05-04T22:14:32.962Z,13.70
2023-05-04T22:17:31.070Z,14.00
2023-05-04T22:19:58.675Z,14.10
2023-05-04T22:22:26.345Z,13.90
2023-05-04T22:24:57.612Z,13.90
2023-05-04T22:27:32.798Z,13.90
2023-05-04T22:30:06.743Z,13.40
2023-05-04T22:32:35.277Z,13.90
2023-05-04T22:35:03.560Z,13.90
2023-05-04T22:37:31.125Z,13.70
2023-05-04T22:40:08.676Z,13.80
2023-05-04T22:42:36.827Z,13.90
2023-05-04T22:45:14.928Z,13.90
2023-05-04T22:47:43.796Z,13.80
2023-05-04T22:50:17.618Z,13.90
2023-05-04T22:52:49.606Z,13.90
2023-05-04T22:56:21.363Z,13.80
2023-05-04T22:58:23.527Z,13.90
2023-05-04T23:01:18.290Z,14.00
2023-05-04T23:03:46.625Z,13.90
2023-05-04T23:06:15.289Z,14.00
2023-05-04T23:08:46.410Z,14.00
2023-05-04T23:11:14.348Z,13.90
2023-05-04T23:13:42.100Z,14.00
2023-05-04T23:19:10.904Z,14.20
2023-05-04T23:21:50.152Z,14.00
2023-05-04T23:26:45.940Z,14.00
2023-05-04T23:29:20.138Z,14.00
2023-05-04T23:31:53.277Z,14.00
2023-05-04T23:34:33.727Z,14.00
2023-05-04T23:40:19.193Z,13.90
2023-05-04T23:43:17.079Z,13.80
2023-05-04T23:45:44.685Z,13.80
2023-05-04T23:48:12.546Z,13.80
2023-05-04T23:51:07.279Z,13.70
2023-05-04T23:53:45.945Z,13.60
2023-05-04T23:56:15.997Z,13.60
2023-05-04T23:59:59.532Z,13.60
